sensor_id;sensor_type;location;lat;lon;timestamp;P1;durP1;ratioP1;P2;durP2;ratioP2
71975;SDS011;60680;52.182;5.398;2022-12-29T00:02:11;4.07;;;1.02;;
71975;SDS011;60680;52.182;5.398;2022-12-29T00:04:38;4.63;;;1.20;;
71975;SDS011;60680;52.182;5.398;2022-12-29T00:07:05;3.42;;;1.10;;
71975;SDS011;60680;52.182;5.398;2022-12-29T00:09:33;2.20;;;0.85;;
71975;SDS011;60680;52.182;5.398;2022-12-29T00:12:00;1.90;;;0.80;;
71975;SDS011;60680;52.182;5.398;2022-12-29T00:14:28;1.60;;;0.73;;
71975;SDS011;60680;52.182;5.398;2022-12-29T00:17:13;1.90;;;0.77;;
71975;SDS011;60680;52.182;5.398;2022-12-29T00:19:40;1.75;;;0.80;;
71975;SDS011;60680;52.182;5.398;2022-12-29T00:22:25;2.35;;;0.85;;
71975;SDS011;60680;52.182;5.398;2022-12-29T00:25:11;1.45;;;0.60;;
71975;SDS011;60680;52.182;5.398;2022-12-29T00:27:57;1.52;;;0.82;;
71975;SDS011;60680;52.182;5.398;2022-12-29T00:30:43;2.60;;;0.93;;
71975;SDS011;60680;52.182;5.398;2022-12-29T00:33:29;2.58;;;0.70;;
71975;SDS011;60680;52.182;5.398;2022-12-29T00:36:29;2.83;;;0.85;;
71975;SDS011;60680;52.182;5.398;2022-12-29T00:39:03;1.00;;;0.55;;
71975;SDS011;60680;52.182;5.398;2022-12-29T00:42:04;1.80;;;0.68;;
71975;SDS011;60680;52.182;5.398;2022-12-29T00:44:50;1.90;;;1.00;;
71975;SDS011;60680;52.182;5.398;2022-12-29T00:47:16;1.50;;;0.60;;
71975;SDS011;60680;52.182;5.398;2022-12-29T00:49:43;2.58;;;0.80;;
71975;SDS011;60680;52.182;5.398;2022-12-29T00:52:11;2.10;;;0.75;;
71975;SDS011;60680;52.182;5.398;2022-12-29T00:54:39;2.55;;;0.80;;
71975;SDS011;60680;52.182;5.398;2022-12-29T00:57:07;1.40;;;0.70;;
71975;SDS011;60680;52.182;5.398;2022-12-29T00:59:36;1.30;;;0.80;;
71975;SDS011;60680;52.182;5.398;2022-12-29T01:02:06;1.80;;;0.47;;
71975;SDS011;60680;52.182;5.398;2022-12-29T01:04:33;2.00;;;0.57;;
71975;SDS011;60680;52.182;5.398;2022-12-29T01:07:00;3.92;;;0.90;;
71975;SDS011;60680;52.182;5.398;2022-12-29T01:09:26;2.80;;;0.60;;
71975;SDS011;60680;52.182;5.398;2022-12-29T01:12:11;2.00;;;0.70;;
71975;SDS011;60680;52.182;5.398;2022-12-29T01:14:39;1.35;;;0.47;;
71975;SDS011;60680;52.182;5.398;2022-12-29T01:17:06;1.45;;;0.40;;
71975;SDS011;60680;52.182;5.398;2022-12-29T01:19:32;2.15;;;0.40;;
71975;SDS011;60680;52.182;5.398;2022-12-29T01:21:59;1.60;;;0.40;;
71975;SDS011;60680;52.182;5.398;2022-12-29T01:24:25;1.65;;;0.40;;
71975;SDS011;60680;52.182;5.398;2022-12-29T01:26:52;1.30;;;0.55;;
71975;SDS011;60680;52.182;5.398;2022-12-29T01:29:20;2.35;;;0.60;;
71975;SDS011;60680;52.182;5.398;2022-12-29T01:31:47;1.58;;;0.50;;
71975;SDS011;60680;52.182;5.398;2022-12-29T01:34:13;1.80;;;0.40;;
71975;SDS011;60680;52.182;5.398;2022-12-29T01:36:41;1.90;;;0.55;;
71975;SDS011;60680;52.182;5.398;2022-12-29T01:39:07;1.15;;;0.40;;
71975;SDS011;60680;52.182;5.398;2022-12-29T01:41:34;1.23;;;0.47;;
71975;SDS011;60680;52.182;5.398;2022-12-29T01:44:00;1.15;;;0.50;;
71975;SDS011;60680;52.182;5.398;2022-12-29T01:51:33;1.30;;;0.47;;
71975;SDS011;60680;52.182;5.398;2022-12-29T01:54:05;2.22;;;0.50;;
71975;SDS011;60680;52.182;5.398;2022-12-29T01:56:43;0.80;;;0.40;;
71975;SDS011;60680;52.182;5.398;2022-12-29T01:59:12;1.47;;;0.43;;
71975;SDS011;60680;52.182;5.398;2022-12-29T02:01:43;2.03;;;0.70;;
71975;SDS011;60680;52.182;5.398;2022-12-29T02:04:10;1.20;;;0.70;;
71975;SDS011;60680;52.182;5.398;2022-12-29T02:06:46;1.48;;;0.70;;
71975;SDS011;60680;52.182;5.398;2022-12-29T02:09:18;1.70;;;0.60;;
71975;SDS011;60680;52.182;5.398;2022-12-29T02:11:44;1.43;;;0.57;;
71975;SDS011;60680;52.182;5.398;2022-12-29T02:14:13;0.93;;;0.47;;
71975;SDS011;60680;52.182;5.398;2022-12-29T02:22:32;2.00;;;0.70;;
71975;SDS011;60680;52.182;5.398;2022-12-29T02:27:50;2.10;;;0.60;;
71975;SDS011;60680;52.182;5.398;2022-12-29T02:33:22;2.33;;;0.40;;
71975;SDS011;60680;52.182;5.398;2022-12-29T02:41:20;2.08;;;0.40;;
71975;SDS011;60680;52.182;5.398;2022-12-29T02:46:53;1.20;;;0.40;;
71975;SDS011;60680;52.182;5.398;2022-12-29T02:52:19;0.90;;;0.30;;
71975;SDS011;60680;52.182;5.398;2022-12-29T02:54:53;2.25;;;0.20;;
71975;SDS011;60680;52.182;5.398;2022-12-29T02:59:47;1.92;;;0.20;;
71975;SDS011;60680;52.182;5.398;2022-12-29T03:05:41;4.87;;;0.20;;
71975;SDS011;60680;52.182;5.398;2022-12-29T03:11:49;2.53;;;0.30;;
71975;SDS011;60680;52.182;5.398;2022-12-29T03:18:05;0.40;;;0.10;;
71975;SDS011;60680;52.182;5.398;2022-12-29T03:20:39;4.40;;;0.20;;
71975;SDS011;60680;52.182;5.398;2022-12-29T03:23:17;1.30;;;0.20;;
71975;SDS011;60680;52.182;5.398;2022-12-29T03:25:47;1.52;;;0.10;;
71975;SDS011;60680;52.182;5.398;2022-12-29T03:28:21;0.52;;;0.10;;
71975;SDS011;60680;52.182;5.398;2022-12-29T03:30:51;1.45;;;0.20;;
71975;SDS011;60680;52.182;5.398;2022-12-29T03:33:21;1.60;;;0.20;;
71975;SDS011;60680;52.182;5.398;2022-12-29T03:35:50;0.63;;;0.38;;
71975;SDS011;60680;52.182;5.398;2022-12-29T03:41:00;2.10;;;0.30;;
71975;SDS011;60680;52.182;5.398;2022-12-29T03:43:30;1.25;;;0.30;;
71975;SDS011;60680;52.182;5.398;2022-12-29T03:45:57;1.17;;;0.30;;
71975;SDS011;60680;52.182;5.398;2022-12-29T03:48:23;2.20;;;0.30;;
71975;SDS011;60680;52.182;5.398;2022-12-29T03:50:50;1.35;;;0.10;;
71975;SDS011;60680;52.182;5.398;2022-12-29T03:53:16;1.95;;;0.30;;
71975;SDS011;60680;52.182;5.398;2022-12-29T03:55:43;2.90;;;0.43;;
71975;SDS011;60680;52.182;5.398;2022-12-29T03:58:10;0.73;;;0.23;;
71975;SDS011;60680;52.182;5.398;2022-12-29T04:00:36;3.35;;;0.10;;
71975;SDS011;60680;52.182;5.398;2022-12-29T04:03:03;1.33;;;0.10;;
71975;SDS011;60680;52.182;5.398;2022-12-29T04:05:29;0.63;;;0.10;;
71975;SDS011;60680;52.182;5.398;2022-12-29T04:07:57;1.30;;;0.20;;
71975;SDS011;60680;52.182;5.398;2022-12-29T04:10:24;4.00;;;0.30;;
71975;SDS011;60680;52.182;5.398;2022-12-29T04:12:50;2.47;;;0.20;;
71975;SDS011;60680;52.182;5.398;2022-12-29T04:15:17;4.20;;;0.20;;
71975;SDS011;60680;52.182;5.398;2022-12-29T04:17:44;1.05;;;0.20;;
71975;SDS011;60680;52.182;5.398;2022-12-29T04:20:10;2.38;;;0.20;;
71975;SDS011;60680;52.182;5.398;2022-12-29T04:22:59;4.03;;;0.30;;
71975;SDS011;60680;52.182;5.398;2022-12-29T04:25:26;3.03;;;0.30;;
71975;SDS011;60680;52.182;5.398;2022-12-29T04:27:52;1.30;;;0.30;;
71975;SDS011;60680;52.182;5.398;2022-12-29T04:30:19;1.38;;;0.30;;
71975;SDS011;60680;52.182;5.398;2022-12-29T04:32:45;1.73;;;0.20;;
71975;SDS011;60680;52.182;5.398;2022-12-29T04:35:12;1.80;;;0.23;;
71975;SDS011;60680;52.182;5.398;2022-12-29T04:37:38;2.17;;;0.20;;
71975;SDS011;60680;52.182;5.398;2022-12-29T04:40:05;2.70;;;0.20;;
71975;SDS011;60680;52.182;5.398;2022-12-29T04:42:32;3.33;;;0.30;;
71975;SDS011;60680;52.182;5.398;2022-12-29T04:44:59;2.67;;;0.20;;
71975;SDS011;60680;52.182;5.398;2022-12-29T04:47:25;3.27;;;0.60;;
71975;SDS011;60680;52.182;5.398;2022-12-29T04:49:52;2.67;;;0.20;;
71975;SDS011;60680;52.182;5.398;2022-12-29T04:52:18;4.10;;;0.25;;
71975;SDS011;60680;52.182;5.398;2022-12-29T04:54:44;2.60;;;0.20;;
71975;SDS011;60680;52.182;5.398;2022-12-29T04:57:11;2.38;;;0.10;;
71975;SDS011;60680;52.182;5.398;2022-12-29T04:59:37;3.53;;;0.20;;
71975;SDS011;60680;52.182;5.398;2022-12-29T05:02:04;8.57;;;0.20;;
71975;SDS011;60680;52.182;5.398;2022-12-29T05:04:30;1.65;;;0.10;;
71975;SDS011;60680;52.182;5.398;2022-12-29T05:06:57;3.20;;;0.10;;
71975;SDS011;60680;52.182;5.398;2022-12-29T05:09:24;1.23;;;0.20;;
71975;SDS011;60680;52.182;5.398;2022-12-29T05:11:50;3.93;;;0.37;;
71975;SDS011;60680;52.182;5.398;2022-12-29T05:14:17;3.20;;;0.20;;
71975;SDS011;60680;52.182;5.398;2022-12-29T05:16:43;5.65;;;0.30;;
71975;SDS011;60680;52.182;5.398;2022-12-29T05:19:10;5.53;;;0.32;;
71975;SDS011;60680;52.182;5.398;2022-12-29T05:21:37;4.18;;;0.28;;
71975;SDS011;60680;52.182;5.398;2022-12-29T05:24:03;2.13;;;0.30;;
71975;SDS011;60680;52.182;5.398;2022-12-29T05:26:30;5.00;;;0.50;;
71975;SDS011;60680;52.182;5.398;2022-12-29T05:28:57;5.65;;;0.30;;
71975;SDS011;60680;52.182;5.398;2022-12-29T05:31:23;3.40;;;0.20;;
71975;SDS011;60680;52.182;5.398;2022-12-29T05:33:50;2.92;;;0.30;;
71975;SDS011;60680;52.182;5.398;2022-12-29T05:36:17;5.83;;;0.40;;
71975;SDS011;60680;52.182;5.398;2022-12-29T05:38:44;5.07;;;0.40;;
71975;SDS011;60680;52.182;5.398;2022-12-29T05:41:10;2.15;;;0.20;;
71975;SDS011;60680;52.182;5.398;2022-12-29T05:43:37;4.72;;;0.30;;
71975;SDS011;60680;52.182;5.398;2022-12-29T05:46:04;8.20;;;0.82;;
71975;SDS011;60680;52.182;5.398;2022-12-29T05:48:30;5.30;;;0.30;;
71975;SDS011;60680;52.182;5.398;2022-12-29T05:51:03;8.13;;;0.50;;
71975;SDS011;60680;52.182;5.398;2022-12-29T05:53:29;1.10;;;0.15;;
71975;SDS011;60680;52.182;5.398;2022-12-29T05:55:56;5.45;;;0.35;;
71975;SDS011;60680;52.182;5.398;2022-12-29T05:58:23;3.67;;;0.22;;
71975;SDS011;60680;52.182;5.398;2022-12-29T06:00:51;7.03;;;0.47;;
71975;SDS011;60680;52.182;5.398;2022-12-29T06:03:17;8.85;;;0.40;;
71975;SDS011;60680;52.182;5.398;2022-12-29T06:05:45;5.50;;;0.43;;
71975;SDS011;60680;52.182;5.398;2022-12-29T06:08:12;5.63;;;0.32;;
71975;SDS011;60680;52.182;5.398;2022-12-29T06:10:39;12.32;;;0.50;;
71975;SDS011;60680;52.182;5.398;2022-12-29T06:13:06;4.87;;;0.40;;
71975;SDS011;60680;52.182;5.398;2022-12-29T06:15:33;2.05;;;0.20;;
71975;SDS011;60680;52.182;5.398;2022-12-29T06:18:00;4.03;;;0.20;;
71975;SDS011;60680;52.182;5.398;2022-12-29T06:20:27;3.90;;;0.22;;
71975;SDS011;60680;52.182;5.398;2022-12-29T06:22:54;5.53;;;0.35;;
71975;SDS011;60680;52.182;5.398;2022-12-29T06:25:20;5.03;;;0.40;;
71975;SDS011;60680;52.182;5.398;2022-12-29T06:27:47;5.13;;;0.20;;
71975;SDS011;60680;52.182;5.398;2022-12-29T06:30:14;2.95;;;0.30;;
71975;SDS011;60680;52.182;5.398;2022-12-29T06:32:42;8.20;;;0.55;;
71975;SDS011;60680;52.182;5.398;2022-12-29T06:35:09;6.00;;;0.88;;
71975;SDS011;60680;52.182;5.398;2022-12-29T06:37:36;4.77;;;0.47;;
71975;SDS011;60680;52.182;5.398;2022-12-29T06:40:02;5.20;;;0.70;;
71975;SDS011;60680;52.182;5.398;2022-12-29T06:42:29;5.43;;;0.52;;
71975;SDS011;60680;52.182;5.398;2022-12-29T06:44:56;3.28;;;0.30;;
71975;SDS011;60680;52.182;5.398;2022-12-29T06:47:25;6.90;;;0.60;;
71975;SDS011;60680;52.182;5.398;2022-12-29T06:49:51;5.17;;;0.50;;
71975;SDS011;60680;52.182;5.398;2022-12-29T06:52:18;6.88;;;0.45;;
71975;SDS011;60680;52.182;5.398;2022-12-29T06:54:44;6.80;;;0.60;;
71975;SDS011;60680;52.182;5.398;2022-12-29T06:57:11;7.22;;;0.43;;
71975;SDS011;60680;52.182;5.398;2022-12-29T06:59:38;5.63;;;0.47;;
71975;SDS011;60680;52.182;5.398;2022-12-29T07:02:05;6.10;;;0.30;;
71975;SDS011;60680;52.182;5.398;2022-12-29T07:04:32;5.47;;;0.63;;
71975;SDS011;60680;52.182;5.398;2022-12-29T07:06:58;4.03;;;0.30;;
71975;SDS011;60680;52.182;5.398;2022-12-29T07:09:25;5.82;;;0.20;;
71975;SDS011;60680;52.182;5.398;2022-12-29T07:11:52;8.75;;;0.63;;
71975;SDS011;60680;52.182;5.398;2022-12-29T07:14:18;4.80;;;0.63;;
71975;SDS011;60680;52.182;5.398;2022-12-29T07:16:45;4.07;;;0.20;;
71975;SDS011;60680;52.182;5.398;2022-12-29T07:19:11;9.23;;;0.50;;
71975;SDS011;60680;52.182;5.398;2022-12-29T07:21:39;4.93;;;0.40;;
71975;SDS011;60680;52.182;5.398;2022-12-29T07:24:13;5.07;;;0.40;;
71975;SDS011;60680;52.182;5.398;2022-12-29T07:26:39;4.33;;;0.23;;
71975;SDS011;60680;52.182;5.398;2022-12-29T07:29:07;5.35;;;0.20;;
71975;SDS011;60680;52.182;5.398;2022-12-29T07:31:34;5.60;;;0.73;;
71975;SDS011;60680;52.182;5.398;2022-12-29T07:34:00;0.98;;;0.10;;
71975;SDS011;60680;52.182;5.398;2022-12-29T07:36:27;4.15;;;0.30;;
71975;SDS011;60680;52.182;5.398;2022-12-29T07:38:59;5.63;;;0.20;;
71975;SDS011;60680;52.182;5.398;2022-12-29T07:41:26;5.28;;;0.55;;
71975;SDS011;60680;52.182;5.398;2022-12-29T07:43:53;3.45;;;0.25;;
71975;SDS011;60680;52.182;5.398;2022-12-29T07:46:20;4.13;;;0.30;;
71975;SDS011;60680;52.182;5.398;2022-12-29T07:49:06;1.75;;;0.43;;
71975;SDS011;60680;52.182;5.398;2022-12-29T07:51:33;2.37;;;0.20;;
71975;SDS011;60680;52.182;5.398;2022-12-29T07:54:00;4.45;;;0.40;;
71975;SDS011;60680;52.182;5.398;2022-12-29T07:56:26;2.72;;;0.28;;
71975;SDS011;60680;52.182;5.398;2022-12-29T07:58:54;6.10;;;0.60;;
71975;SDS011;60680;52.182;5.398;2022-12-29T08:01:20;5.50;;;0.55;;
71975;SDS011;60680;52.182;5.398;2022-12-29T08:03:49;4.97;;;0.40;;
71975;SDS011;60680;52.182;5.398;2022-12-29T08:06:22;4.10;;;0.70;;
71975;SDS011;60680;52.182;5.398;2022-12-29T08:08:49;9.55;;;0.75;;
71975;SDS011;60680;52.182;5.398;2022-12-29T08:11:16;7.32;;;0.30;;
71975;SDS011;60680;52.182;5.398;2022-12-29T08:13:42;3.92;;;0.30;;
71975;SDS011;60680;52.182;5.398;2022-12-29T08:16:09;3.10;;;0.37;;
71975;SDS011;60680;52.182;5.398;2022-12-29T08:18:36;9.73;;;0.50;;
71975;SDS011;60680;52.182;5.398;2022-12-29T08:21:03;5.75;;;0.30;;
71975;SDS011;60680;52.182;5.398;2022-12-29T08:23:30;8.38;;;0.52;;
71975;SDS011;60680;52.182;5.398;2022-12-29T08:25:58;4.57;;;0.50;;
71975;SDS011;60680;52.182;5.398;2022-12-29T08:28:26;4.37;;;0.30;;
71975;SDS011;60680;52.182;5.398;2022-12-29T08:30:53;5.57;;;0.50;;
71975;SDS011;60680;52.182;5.398;2022-12-29T08:33:23;5.75;;;0.47;;
71975;SDS011;60680;52.182;5.398;2022-12-29T08:35:49;8.18;;;0.60;;
71975;SDS011;60680;52.182;5.398;2022-12-29T08:38:16;6.30;;;0.30;;
71975;SDS011;60680;52.182;5.398;2022-12-29T08:40:44;7.37;;;0.40;;
71975;SDS011;60680;52.182;5.398;2022-12-29T08:43:10;10.07;;;0.75;;
71975;SDS011;60680;52.182;5.398;2022-12-29T08:45:42;10.20;;;1.05;;
71975;SDS011;60680;52.182;5.398;2022-12-29T08:48:08;4.40;;;0.50;;
71975;SDS011;60680;52.182;5.398;2022-12-29T08:50:35;5.13;;;0.40;;
71975;SDS011;60680;52.182;5.398;2022-12-29T08:53:01;6.87;;;0.73;;
71975;SDS011;60680;52.182;5.398;2022-12-29T08:55:28;5.30;;;0.65;;
71975;SDS011;60680;52.182;5.398;2022-12-29T08:57:54;7.82;;;0.47;;
71975;SDS011;60680;52.182;5.398;2022-12-29T09:00:20;8.02;;;0.65;;
71975;SDS011;60680;52.182;5.398;2022-12-29T09:02:47;7.75;;;0.75;;
71975;SDS011;60680;52.182;5.398;2022-12-29T09:05:14;6.13;;;0.50;;
71975;SDS011;60680;52.182;5.398;2022-12-29T09:07:41;8.40;;;0.60;;
71975;SDS011;60680;52.182;5.398;2022-12-29T09:10:08;7.10;;;0.60;;
71975;SDS011;60680;52.182;5.398;2022-12-29T09:12:35;5.45;;;0.25;;
71975;SDS011;60680;52.182;5.398;2022-12-29T09:15:02;8.13;;;0.50;;
71975;SDS011;60680;52.182;5.398;2022-12-29T09:17:29;3.97;;;0.60;;
71975;SDS011;60680;52.182;5.398;2022-12-29T09:20:10;5.45;;;0.80;;
71975;SDS011;60680;52.182;5.398;2022-12-29T09:22:40;6.35;;;0.43;;
71975;SDS011;60680;52.182;5.398;2022-12-29T09:25:07;4.88;;;0.60;;
71975;SDS011;60680;52.182;5.398;2022-12-29T09:27:35;4.55;;;0.30;;
71975;SDS011;60680;52.182;5.398;2022-12-29T09:30:03;11.23;;;0.60;;
71975;SDS011;60680;52.182;5.398;2022-12-29T09:32:32;6.97;;;0.60;;
71975;SDS011;60680;52.182;5.398;2022-12-29T09:35:02;5.25;;;0.60;;
71975;SDS011;60680;52.182;5.398;2022-12-29T09:37:29;5.20;;;0.50;;
71975;SDS011;60680;52.182;5.398;2022-12-29T09:39:56;5.47;;;0.30;;
71975;SDS011;60680;52.182;5.398;2022-12-29T09:47:31;6.22;;;0.75;;
71975;SDS011;60680;52.182;5.398;2022-12-29T09:53:05;3.78;;;0.40;;
71975;SDS011;60680;52.182;5.398;2022-12-29T09:55:50;2.43;;;0.30;;
71975;SDS011;60680;52.182;5.398;2022-12-29T09:59:02;4.40;;;0.60;;
71975;SDS011;60680;52.182;5.398;2022-12-29T10:01:32;4.55;;;0.60;;
71975;SDS011;60680;52.182;5.398;2022-12-29T10:04:04;7.05;;;0.40;;
71975;SDS011;60680;52.182;5.398;2022-12-29T10:06:37;8.40;;;0.75;;
71975;SDS011;60680;52.182;5.398;2022-12-29T10:17:54;5.00;;;0.50;;
71975;SDS011;60680;52.182;5.398;2022-12-29T10:20:55;4.63;;;0.75;;
71975;SDS011;60680;52.182;5.398;2022-12-29T10:23:25;5.63;;;0.47;;
71975;SDS011;60680;52.182;5.398;2022-12-29T10:25:55;7.18;;;0.45;;
71975;SDS011;60680;52.182;5.398;2022-12-29T10:28:24;4.03;;;0.40;;
71975;SDS011;60680;52.182;5.398;2022-12-29T10:31:16;7.18;;;0.50;;
71975;SDS011;60680;52.182;5.398;2022-12-29T10:33:48;4.47;;;0.60;;
71975;SDS011;60680;52.182;5.398;2022-12-29T10:36:39;4.57;;;0.70;;
71975;SDS011;60680;52.182;5.398;2022-12-29T10:39:21;4.22;;;0.35;;
71975;SDS011;60680;52.182;5.398;2022-12-29T10:41:55;5.68;;;0.85;;
71975;SDS011;60680;52.182;5.398;2022-12-29T10:44:38;3.17;;;0.20;;
71975;SDS011;60680;52.182;5.398;2022-12-29T10:47:06;5.68;;;0.30;;
71975;SDS011;60680;52.182;5.398;2022-12-29T10:49:39;4.97;;;0.20;;
71975;SDS011;60680;52.182;5.398;2022-12-29T10:52:08;6.00;;;0.40;;
71975;SDS011;60680;52.182;5.398;2022-12-29T10:57:38;5.95;;;0.60;;
71975;SDS011;60680;52.182;5.398;2022-12-29T11:00:14;6.35;;;1.00;;
71975;SDS011;60680;52.182;5.398;2022-12-29T11:05:37;4.47;;;0.90;;
71975;SDS011;60680;52.182;5.398;2022-12-29T11:08:10;7.45;;;0.98;;
71975;SDS011;60680;52.182;5.398;2022-12-29T11:10:43;9.50;;;0.75;;
71975;SDS011;60680;52.182;5.398;2022-12-29T11:13:28;8.32;;;0.80;;
71975;SDS011;60680;52.182;5.398;2022-12-29T11:16:04;14.23;;;0.90;;
71975;SDS011;60680;52.182;5.398;2022-12-29T11:18:37;12.32;;;1.10;;
71975;SDS011;60680;52.182;5.398;2022-12-29T11:21:06;11.75;;;1.35;;
71975;SDS011;60680;52.182;5.398;2022-12-29T11:23:58;9.77;;;0.77;;
71975;SDS011;60680;52.182;5.398;2022-12-29T11:26:30;6.75;;;0.93;;
71975;SDS011;60680;52.182;5.398;2022-12-29T11:31:49;11.75;;;1.25;;
71975;SDS011;60680;52.182;5.398;2022-12-29T11:34:26;8.05;;;1.25;;
71975;SDS011;60680;52.182;5.398;2022-12-29T11:37:02;6.18;;;0.70;;
71975;SDS011;60680;52.182;5.398;2022-12-29T11:39:48;7.97;;;0.93;;
71975;SDS011;60680;52.182;5.398;2022-12-29T11:42:17;4.60;;;0.93;;
71975;SDS011;60680;52.182;5.398;2022-12-29T11:44:48;4.93;;;0.90;;
71975;SDS011;60680;52.182;5.398;2022-12-29T11:47:22;10.25;;;1.48;;
71975;SDS011;60680;52.182;5.398;2022-12-29T11:49:56;7.20;;;0.90;;
71975;SDS011;60680;52.182;5.398;2022-12-29T11:52:26;12.15;;;1.08;;
71975;SDS011;60680;52.182;5.398;2022-12-29T11:54:55;9.90;;;1.10;;
71975;SDS011;60680;52.182;5.398;2022-12-29T11:57:22;5.35;;;0.77;;
71975;SDS011;60680;52.182;5.398;2022-12-29T11:59:55;6.97;;;0.70;;
71975;SDS011;60680;52.182;5.398;2022-12-29T12:05:13;8.25;;;1.05;;
71975;SDS011;60680;52.182;5.398;2022-12-29T12:07:46;7.03;;;0.87;;
71975;SDS011;60680;52.182;5.398;2022-12-29T12:10:25;11.70;;;0.85;;
71975;SDS011;60680;52.182;5.398;2022-12-29T12:13:02;9.20;;;0.93;;
71975;SDS011;60680;52.182;5.398;2022-12-29T12:15:54;8.45;;;1.02;;
71975;SDS011;60680;52.182;5.398;2022-12-29T12:18:37;11.52;;;1.10;;
71975;SDS011;60680;52.182;5.398;2022-12-29T12:23:44;6.13;;;0.90;;
71975;SDS011;60680;52.182;5.398;2022-12-29T12:26:15;9.70;;;1.10;;
71975;SDS011;60680;52.182;5.398;2022-12-29T12:32:06;9.50;;;0.82;;
71975;SDS011;60680;52.182;5.398;2022-12-29T12:35:04;7.33;;;1.70;;
71975;SDS011;60680;52.182;5.398;2022-12-29T13:04:23;9.02;;;1.48;;
71975;SDS011;60680;52.182;5.398;2022-12-29T13:15:23;10.93;;;0.93;;
71975;SDS011;60680;52.182;5.398;2022-12-29T13:20:47;4.30;;;0.70;;
71975;SDS011;60680;52.182;5.398;2022-12-29T13:23:38;11.45;;;0.93;;
71975;SDS011;60680;52.182;5.398;2022-12-29T13:32:07;6.20;;;0.70;;
71975;SDS011;60680;52.182;5.398;2022-12-29T13:37:34;6.47;;;0.90;;
71975;SDS011;60680;52.182;5.398;2022-12-29T13:40:11;9.73;;;0.93;;
71975;SDS011;60680;52.182;5.398;2022-12-29T13:42:42;5.30;;;0.70;;
71975;SDS011;60680;52.182;5.398;2022-12-29T13:45:10;6.90;;;0.70;;
71975;SDS011;60680;52.182;5.398;2022-12-29T13:47:44;8.98;;;1.00;;
71975;SDS011;60680;52.182;5.398;2022-12-29T13:50:18;4.60;;;0.50;;
71975;SDS011;60680;52.182;5.398;2022-12-29T13:58:27;6.68;;;0.85;;
71975;SDS011;60680;52.182;5.398;2022-12-29T14:01:03;11.95;;;1.13;;
71975;SDS011;60680;52.182;5.398;2022-12-29T14:03:46;10.60;;;1.15;;
71975;SDS011;60680;52.182;5.398;2022-12-29T14:06:19;10.30;;;1.10;;
71975;SDS011;60680;52.182;5.398;2022-12-29T14:08:55;5.37;;;1.03;;
71975;SDS011;60680;52.182;5.398;2022-12-29T14:11:28;6.50;;;1.05;;
71975;SDS011;60680;52.182;5.398;2022-12-29T14:13:59;9.88;;;2.03;;
71975;SDS011;60680;52.182;5.398;2022-12-29T14:16:37;8.93;;;0.90;;
71975;SDS011;60680;52.182;5.398;2022-12-29T14:19:05;8.73;;;0.77;;
71975;SDS011;60680;52.182;5.398;2022-12-29T14:22:00;5.77;;;0.77;;
71975;SDS011;60680;52.182;5.398;2022-12-29T14:26:58;4.60;;;1.02;;
71975;SDS011;60680;52.182;5.398;2022-12-29T14:31:52;3.75;;;1.20;;
71975;SDS011;60680;52.182;5.398;2022-12-29T14:44:29;3.50;;;0.40;;
71975;SDS011;60680;52.182;5.398;2022-12-29T14:46:57;1.73;;;0.27;;
71975;SDS011;60680;52.182;5.398;2022-12-29T14:49:28;5.68;;;0.65;;
71975;SDS011;60680;52.182;5.398;2022-12-29T14:52:05;2.92;;;0.20;;
71975;SDS011;60680;52.182;5.398;2022-12-29T14:57:06;4.50;;;0.30;;
71975;SDS011;60680;52.182;5.398;2022-12-29T14:59:39;2.67;;;0.20;;
71975;SDS011;60680;52.182;5.398;2022-12-29T15:02:13;2.38;;;0.50;;
71975;SDS011;60680;52.182;5.398;2022-12-29T15:04:43;5.97;;;0.50;;
71975;SDS011;60680;52.182;5.398;2022-12-29T15:07:10;3.40;;;0.60;;
71975;SDS011;60680;52.182;5.398;2022-12-29T15:09:58;4.38;;;1.15;;
71975;SDS011;60680;52.182;5.398;2022-12-29T15:12:46;4.70;;;0.93;;
71975;SDS011;60680;52.182;5.398;2022-12-29T15:17:46;4.82;;;0.45;;
71975;SDS011;60680;52.182;5.398;2022-12-29T15:20:14;3.55;;;0.60;;
71975;SDS011;60680;52.182;5.398;2022-12-29T15:22:50;2.67;;;0.60;;
71975;SDS011;60680;52.182;5.398;2022-12-29T15:25:20;5.40;;;0.50;;
71975;SDS011;60680;52.182;5.398;2022-12-29T15:27:50;5.80;;;0.55;;
71975;SDS011;60680;52.182;5.398;2022-12-29T15:30:18;5.60;;;0.55;;
71975;SDS011;60680;52.182;5.398;2022-12-29T15:32:47;5.40;;;0.63;;
71975;SDS011;60680;52.182;5.398;2022-12-29T15:35:22;5.30;;;0.57;;
71975;SDS011;60680;52.182;5.398;2022-12-29T15:37:49;4.00;;;0.60;;
71975;SDS011;60680;52.182;5.398;2022-12-29T15:40:26;6.35;;;0.68;;
71975;SDS011;60680;52.182;5.398;2022-12-29T15:45:30;6.68;;;0.95;;
71975;SDS011;60680;52.182;5.398;2022-12-29T15:48:00;6.13;;;0.80;;
71975;SDS011;60680;52.182;5.398;2022-12-29T15:50:27;4.13;;;0.80;;
71975;SDS011;60680;52.182;5.398;2022-12-29T15:52:56;5.93;;;0.55;;
71975;SDS011;60680;52.182;5.398;2022-12-29T15:55:34;4.50;;;0.80;;
71975;SDS011;60680;52.182;5.398;2022-12-29T15:58:04;5.03;;;0.60;;
71975;SDS011;60680;52.182;5.398;2022-12-29T16:00:46;4.22;;;0.65;;
71975;SDS011;60680;52.182;5.398;2022-12-29T16:03:16;3.77;;;0.63;;
71975;SDS011;60680;52.182;5.398;2022-12-29T16:05:49;7.22;;;0.52;;
71975;SDS011;60680;52.182;5.398;2022-12-29T16:08:28;6.15;;;0.70;;
71975;SDS011;60680;52.182;5.398;2022-12-29T16:10:59;4.18;;;1.08;;
71975;SDS011;60680;52.182;5.398;2022-12-29T16:16:09;8.90;;;1.03;;
71975;SDS011;60680;52.182;5.398;2022-12-29T16:18:52;2.72;;;0.70;;
71975;SDS011;60680;52.182;5.398;2022-12-29T16:21:27;5.10;;;0.88;;
71975;SDS011;60680;52.182;5.398;2022-12-29T16:24:16;5.30;;;1.00;;
71975;SDS011;60680;52.182;5.398;2022-12-29T16:26:47;4.93;;;0.90;;
71975;SDS011;60680;52.182;5.398;2022-12-29T16:29:16;7.30;;;1.27;;
71975;SDS011;60680;52.182;5.398;2022-12-29T16:39:30;8.20;;;2.47;;
71975;SDS011;60680;52.182;5.398;2022-12-29T16:45:09;7.93;;;1.77;;
71975;SDS011;60680;52.182;5.398;2022-12-29T16:50:33;5.03;;;0.90;;
71975;SDS011;60680;52.182;5.398;2022-12-29T16:53:01;4.40;;;0.60;;
71975;SDS011;60680;52.182;5.398;2022-12-29T16:55:29;3.57;;;0.87;;
71975;SDS011;60680;52.182;5.398;2022-12-29T16:57:56;6.97;;;0.80;;
71975;SDS011;60680;52.182;5.398;2022-12-29T17:00:29;5.22;;;1.10;;
71975;SDS011;60680;52.182;5.398;2022-12-29T17:03:01;5.70;;;1.02;;
71975;SDS011;60680;52.182;5.398;2022-12-29T17:05:29;2.97;;;0.55;;
71975;SDS011;60680;52.182;5.398;2022-12-29T17:07:55;8.00;;;1.67;;
71975;SDS011;60680;52.182;5.398;2022-12-29T17:10:26;3.78;;;0.65;;
71975;SDS011;60680;52.182;5.398;2022-12-29T17:13:13;2.72;;;0.75;;
71975;SDS011;60680;52.182;5.398;2022-12-29T17:15:39;3.97;;;0.60;;
71975;SDS011;60680;52.182;5.398;2022-12-29T17:18:06;5.97;;;0.30;;
71975;SDS011;60680;52.182;5.398;2022-12-29T17:20:39;3.23;;;0.50;;
71975;SDS011;60680;52.182;5.398;2022-12-29T17:23:10;4.65;;;0.77;;
71975;SDS011;60680;52.182;5.398;2022-12-29T17:25:49;4.45;;;1.23;;
71975;SDS011;60680;52.182;5.398;2022-12-29T17:28:20;7.55;;;1.13;;
71975;SDS011;60680;52.182;5.398;2022-12-29T17:30:57;6.40;;;0.70;;
71975;SDS011;60680;52.182;5.398;2022-12-29T17:33:26;5.03;;;0.77;;
71975;SDS011;60680;52.182;5.398;2022-12-29T17:35:55;7.35;;;0.60;;
71975;SDS011;60680;52.182;5.398;2022-12-29T17:40:54;5.55;;;0.93;;
71975;SDS011;60680;52.182;5.398;2022-12-29T17:43:20;5.47;;;0.50;;
71975;SDS011;60680;52.182;5.398;2022-12-29T17:45:54;2.30;;;0.30;;
71975;SDS011;60680;52.182;5.398;2022-12-29T17:48:23;4.50;;;0.90;;
71975;SDS011;60680;52.182;5.398;2022-12-29T17:50:50;8.38;;;0.70;;
71975;SDS011;60680;52.182;5.398;2022-12-29T17:53:20;7.78;;;0.57;;
71975;SDS011;60680;52.182;5.398;2022-12-29T17:55:50;8.13;;;0.80;;
71975;SDS011;60680;52.182;5.398;2022-12-29T18:00:48;3.75;;;0.80;;
71975;SDS011;60680;52.182;5.398;2022-12-29T18:03:17;7.38;;;1.05;;
71975;SDS011;60680;52.182;5.398;2022-12-29T18:05:47;5.30;;;0.73;;